Time;durP1;ratioP1;P1;durP2;ratioP2;P2;SDS_P1;SDS_P2;PMS_P1;PMS_P2;Temp;Humidity;BMP_temperature;BMP_pressure;BME280_temperature;BME280_humidity;BME280_pressure;Samples;Min_cycle;Max_cycle;Signal;HPM_P1;HPM_P2
2021/08/07 00:01:21;;;;;;;5.72;1.65;;;;;;;;;;5059885;28;20121;-78
2021/08/07 00:03:47;;;;;;;3.65;1.67;;;;;;;;;;5077122;28;20043;-78
2021/08/07 00:06:12;;;;;;;3.55;1.63;;;;;;;;;;5094680;28;20429;-78
2021/08/07 00:08:38;;;;;;;3.92;1.63;;;;;;;;;;5094904;28;20032;-78
2021/08/07 00:11:03;;;;;;;9.63;1.70;;;;;;;;;;5099020;28;20032;-78
2021/08/07 00:13:29;;;;;;;3.80;1.80;;;;;;;;;;5118855;28;20035;-79
2021/08/07 00:15:54;;;;;;;4.25;1.52;;;;;;;;;;5102536;28;20118;-79
2021/08/07 00:18:20;;;;;;;1.33;1.23;;;;;;;;;;5121500;28;20047;-79
2021/08/07 00:20:45;;;;;;;2.38;1.60;;;;;;;;;;5119251;28;20080;-79
2021/08/07 00:23:11;;;;;;;3.78;1.40;;;;;;;;;;5101870;28;20024;-79
2021/08/07 00:25:36;;;;;;;2.47;1.50;;;;;;;;;;5120843;28;20264;-79
2021/08/07 00:28:02;;;;;;;2.60;1.73;;;;;;;;;;5119502;28;20040;-79
2021/08/07 00:30:27;;;;;;;2.55;1.40;;;;;;;;;;5119115;28;20048;-79
2021/08/07 00:32:53;;;;;;;1.55;1.27;;;;;;;;;;5118493;28;20043;-79
2021/08/07 00:35:18;;;;;;;1.95;1.60;;;;;;;;;;5101804;28;20484;-78
2021/08/07 00:37:44;;;;;;;2.58;1.50;;;;;;;;;;5117876;28;20063;-78
2021/08/07 00:40:13;;;;;;;5.95;1.50;;;;;;;;;;5097566;28;20069;-78
2021/08/07 00:42:39;;;;;;;2.67;1.65;;;;;;;;;;5096177;28;20036;-78
2021/08/07 00:45:13;;;;;;;2.70;1.75;;;;;;;;;;5096776;28;20500;-78
2021/08/07 00:47:41;;;;;;;4.00;1.60;;;;;;;;;;5079667;28;20039;-78
2021/08/07 00:50:09;;;;;;;2.00;1.35;;;;;;;;;;5079052;28;20119;-78
2021/08/07 00:52:37;;;;;;;2.92;1.83;;;;;;;;;;5096182;28;20032;-78
2021/08/07 00:55:05;;;;;;;2.00;1.70;;;;;;;;;;5095795;28;20054;-78
2021/08/07 00:57:32;;;;;;;3.00;1.83;;;;;;;;;;5095185;28;20028;-78
2021/08/07 00:59:58;;;;;;;3.35;2.15;;;;;;;;;;5095004;28;20024;-78
2021/08/07 01:02:25;;;;;;;2.53;2.00;;;;;;;;;;5078530;28;20041;-78
2021/08/07 01:05:07;;;;;;;4.03;1.60;;;;;;;;;;5095609;28;20038;-78
2021/08/07 01:08:18;;;;;;;3.67;2.00;;;;;;;;;;5078799;28;20100;-78
2021/08/07 01:11:01;;;;;;;7.78;2.30;;;;;;;;;;5069772;28;20040;-78
2021/08/07 01:13:51;;;;;;;6.65;2.35;;;;;;;;;;5074556;28;20036;-78
2021/08/07 01:16:32;;;;;;;6.15;2.67;;;;;;;;;;5058392;28;20024;-78
2021/08/07 01:19:02;;;;;;;3.30;2.30;;;;;;;;;;5074638;28;20024;-78
2021/08/07 01:21:40;;;;;;;3.42;1.98;;;;;;;;;;5058011;28;20035;-78
2021/08/07 01:24:14;;;;;;;5.15;2.33;;;;;;;;;;5057946;28;20398;-78
2021/08/07 01:26:48;;;;;;;4.78;2.40;;;;;;;;;;5057825;28;20032;-78
2021/08/07 01:29:19;;;;;;;8.82;2.65;;;;;;;;;;5073815;28;20075;-78
2021/08/07 01:31:52;;;;;;;7.00;3.10;;;;;;;;;;5074125;28;20560;-78
2021/08/07 01:34:22;;;;;;;5.30;3.20;;;;;;;;;;5058248;28;20028;-78
2021/08/07 01:36:48;;;;;;;12.30;4.55;;;;;;;;;;5057679;28;20043;-78
2021/08/07 01:39:22;;;;;;;20.40;3.08;;;;;;;;;;5058559;28;20025;-78
2021/08/07 01:41:50;;;;;;;3.28;2.75;;;;;;;;;;5091340;28;20094;-78
2021/08/07 01:44:22;;;;;;;6.32;2.63;;;;;;;;;;5075413;28;20028;-78
2021/08/07 01:46:56;;;;;;;5.47;2.95;;;;;;;;;;5058181;28;20039;-78
2021/08/07 01:49:41;;;;;;;4.55;2.95;;;;;;;;;;5074396;28;20043;-79
2021/08/07 01:52:14;;;;;;;5.93;3.17;;;;;;;;;;5074387;28;20186;-78
2021/08/07 01:55:00;;;;;;;3.92;3.17;;;;;;;;;;5073757;28;20074;-78
2021/08/07 01:57:33;;;;;;;7.43;3.10;;;;;;;;;;5073502;28;20074;-78
2021/08/07 02:00:01;;;;;;;5.88;2.90;;;;;;;;;;5056641;28;20025;-78
2021/08/07 02:02:28;;;;;;;7.45;2.78;;;;;;;;;;5056477;28;20040;-78
2021/08/07 02:04:58;;;;;;;6.22;3.47;;;;;;;;;;5073807;28;20036;-78
2021/08/07 02:07:28;;;;;;;6.75;3.20;;;;;;;;;;5057867;28;20039;-78
2021/08/07 02:09:59;;;;;;;5.55;3.13;;;;;;;;;;5074264;28;20119;-78
2021/08/07 02:12:26;;;;;;;5.60;3.05;;;;;;;;;;5059292;28;20872;-78
2021/08/07 02:14:57;;;;;;;260.23;7.72;;;;;;;;;;5094160;28;20382;-78
2021/08/07 02:17:24;;;;;;;267.13;7.22;;;;;;;;;;5077521;28;20414;-78
2021/08/07 02:19:51;;;;;;;41.05;3.70;;;;;;;;;;5093988;28;20504;-78
2021/08/07 02:22:19;;;;;;;13.23;3.80;;;;;;;;;;5093994;28;20032;-78
2021/08/07 02:24:45;;;;;;;10.93;4.10;;;;;;;;;;5077238;28;20074;-78
2021/08/07 02:27:20;;;;;;;5.13;3.23;;;;;;;;;;5078561;28;20039;-78
2021/08/07 02:29:46;;;;;;;7.75;3.10;;;;;;;;;;5077353;28;20036;-78
2021/08/07 02:32:14;;;;;;;18.42;4.13;;;;;;;;;;5094383;28;20135;-78
2021/08/07 02:34:47;;;;;;;19.77;3.22;;;;;;;;;;5094318;28;20032;-78
2021/08/07 02:37:21;;;;;;;45.20;4.45;;;;;;;;;;5078124;28;20118;-78
2021/08/07 02:39:48;;;;;;;19.65;4.10;;;;;;;;;;5076901;28;20032;-78
2021/08/07 02:42:15;;;;;;;45.65;4.00;;;;;;;;;;5092273;28;20028;-78
2021/08/07 02:44:44;;;;;;;98.50;5.18;;;;;;;;;;5074083;28;20035;-78
2021/08/07 02:47:10;;;;;;;8.32;3.85;;;;;;;;;;5057012;28;20032;-78
2021/08/07 02:49:37;;;;;;;7.72;3.30;;;;;;;;;;5073836;28;20115;-78
2021/08/07 02:52:03;;;;;;;37.35;3.40;;;;;;;;;;5073859;28;20121;-78
2021/08/07 02:54:30;;;;;;;13.95;3.30;;;;;;;;;;5057266;28;20055;-78
2021/08/07 02:56:56;;;;;;;5.47;2.78;;;;;;;;;;5073935;28;20119;-78
2021/08/07 02:59:24;;;;;;;3.10;2.78;;;;;;;;;;5058478;28;20533;-78
2021/08/07 03:01:50;;;;;;;10.25;3.38;;;;;;;;;;5074314;28;20056;-78
2021/08/07 03:04:16;;;;;;;23.90;3.30;;;;;;;;;;5058328;28;20024;-80
2021/08/07 03:06:41;;;;;;;19.42;3.15;;;;;;;;;;5057867;28;20052;-78
2021/08/07 03:09:07;;;;;;;14.27;3.20;;;;;;;;;;5074212;28;20051;-78
2021/08/07 03:11:38;;;;;;;5.10;2.97;;;;;;;;;;5075120;28;20085;-78
2021/08/07 03:14:06;;;;;;;6.13;2.80;;;;;;;;;;5077334;28;20024;-78
2021/08/07 03:16:36;;;;;;;4.10;2.30;;;;;;;;;;5081344;28;20035;-78
2021/08/07 03:19:05;;;;;;;6.35;3.10;;;;;;;;;;5081820;28;20043;-78
2021/08/07 03:21:31;;;;;;;6.57;2.92;;;;;;;;;;5081107;28;20036;-78
2021/08/07 03:24:00;;;;;;;6.75;3.08;;;;;;;;;;5097197;28;20382;-78
2021/08/07 03:26:28;;;;;;;3.92;2.90;;;;;;;;;;5080575;28;20039;-78
2021/08/07 03:28:57;;;;;;;4.03;2.53;;;;;;;;;;5080700;28;20043;-78
2021/08/07 03:31:23;;;;;;;5.85;3.03;;;;;;;;;;5080725;28;20028;-79
2021/08/07 03:33:49;;;;;;;5.55;2.90;;;;;;;;;;5097642;28;20067;-78
2021/08/07 03:36:17;;;;;;;7.95;3.45;;;;;;;;;;5080311;28;20122;-78
2021/08/07 03:38:48;;;;;;;5.65;3.28;;;;;;;;;;5081893;28;20036;-78
2021/08/07 03:41:14;;;;;;;4.70;3.00;;;;;;;;;;5097555;28;20035;-78
2021/08/07 03:43:40;;;;;;;12.95;3.33;;;;;;;;;;5068742;28;20467;-79
2021/08/07 03:46:07;;;;;;;4.30;2.75;;;;;;;;;;5077939;28;20040;-79
2021/08/07 03:48:32;;;;;;;4.15;2.90;;;;;;;;;;5077660;28;20409;-79
2021/08/07 03:50:58;;;;;;;3.47;2.85;;;;;;;;;;5061577;28;20493;-79
2021/08/07 03:53:33;;;;;;;6.05;2.55;;;;;;;;;;5062693;28;20043;-79
2021/08/07 03:55:58;;;;;;;6.28;3.13;;;;;;;;;;5060662;28;20032;-79
2021/08/07 03:58:25;;;;;;;3.58;2.97;;;;;;;;;;5078314;28;20075;-79
2021/08/07 04:01:03;;;;;;;15.73;2.80;;;;;;;;;;5063090;28;20078;-79
2021/08/07 04:03:32;;;;;;;8.60;2.47;;;;;;;;;;5077799;28;20036;-78
2021/08/07 04:06:00;;;;;;;3.00;2.50;;;;;;;;;;5060957;28;20064;-79
2021/08/07 04:08:26;;;;;;;9.80;2.30;;;;;;;;;;5060849;28;20131;-78
2021/08/07 04:10:52;;;;;;;4.93;2.70;;;;;;;;;;5077137;28;20052;-78
2021/08/07 04:13:18;;;;;;;26.15;3.15;;;;;;;;;;5069982;28;20048;-78
2021/08/07 04:15:46;;;;;;;2.85;2.17;;;;;;;;;;5080184;28;20040;-78
2021/08/07 04:18:12;;;;;;;16.63;3.47;;;;;;;;;;5097743;28;20110;-78
2021/08/07 04:20:39;;;;;;;2.75;2.50;;;;;;;;;;5081343;28;20123;-79
2021/08/07 04:23:05;;;;;;;3.15;2.20;;;;;;;;;;5080336;28;20067;-79
2021/08/07 04:25:34;;;;;;;2.90;2.60;;;;;;;;;;5081524;28;20035;-78
2021/08/07 04:28:00;;;;;;;38.53;2.78;;;;;;;;;;5081592;28;20593;-79
2021/08/07 04:30:26;;;;;;;36.17;3.28;;;;;;;;;;5098198;28;20028;-78
2021/08/07 04:32:51;;;;;;;3.20;2.50;;;;;;;;;;5079809;28;20075;-78
2021/08/07 04:35:17;;;;;;;3.88;2.00;;;;;;;;;;5096994;28;20516;-78
2021/08/07 04:37:48;;;;;;;13.18;2.97;;;;;;;;;;5097682;28;20024;-78
2021/08/07 04:40:14;;;;;;;172.90;4.93;;;;;;;;;;5096911;28;20035;-79
2021/08/07 04:42:40;;;;;;;4.88;2.38;;;;;;;;;;5076352;28;20398;-79
2021/08/07 04:45:06;;;;;;;50.25;3.08;;;;;;;;;;5060022;28;20050;-79
2021/08/07 04:47:31;;;;;;;180.88;5.32;;;;;;;;;;5078006;28;20036;-79
2021/08/07 04:49:57;;;;;;;2.50;2.30;;;;;;;;;;5060008;28;20028;-78
2021/08/07 04:52:23;;;;;;;3.08;2.10;;;;;;;;;;5059810;28;20102;-78
2021/08/07 04:54:49;;;;;;;3.58;2.60;;;;;;;;;;5060467;28;20481;-79
2021/08/07 04:57:14;;;;;;;4.20;2.63;;;;;;;;;;5076499;28;20071;-79
2021/08/07 04:59:39;;;;;;;4.03;2.25;;;;;;;;;;5059738;28;20039;-78
2021/08/07 05:02:05;;;;;;;2.95;1.88;;;;;;;;;;5076184;28;20032;-78
2021/08/07 05:04:31;;;;;;;5.30;2.15;;;;;;;;;;5075606;28;20500;-78
2021/08/07 05:06:57;;;;;;;2.80;2.25;;;;;;;;;;5075593;28;20032;-78
2021/08/07 05:09:23;;;;;;;1.80;1.70;;;;;;;;;;5074508;28;20059;-78
2021/08/07 05:12:08;;;;;;;37.78;2.47;;;;;;;;;;5075650;28;20036;-78
2021/08/07 05:14:38;;;;;;;1.90;1.80;;;;;;;;;;5058992;28;20032;-78
2021/08/07 05:17:03;;;;;;;1.80;1.70;;;;;;;;;;5057864;28;20043;-78
2021/08/07 05:19:29;;;;;;;2.00;1.80;;;;;;;;;;5057810;28;20037;-78
2021/08/07 05:21:54;;;;;;;2.10;1.73;;;;;;;;;;5058265;28;20036;-78
2021/08/07 05:24:20;;;;;;;1.83;1.67;;;;;;;;;;5074056;28;20040;-78
2021/08/07 05:26:47;;;;;;;2.40;1.80;;;;;;;;;;5074654;28;20482;-78
2021/08/07 05:29:14;;;;;;;4.82;2.08;;;;;;;;;;5075508;28;20115;-78
2021/08/07 05:31:40;;;;;;;1.80;1.70;;;;;;;;;;5074363;28;20494;-78
2021/08/07 05:34:05;;;;;;;2.17;1.50;;;;;;;;;;5057895;28;20051;-77
2021/08/07 05:36:31;;;;;;;15.02;2.00;;;;;;;;;;5057907;28;20036;-78
2021/08/07 05:38:58;;;;;;;1.50;1.40;;;;;;;;;;5075645;28;20033;-82
2021/08/07 05:41:24;;;;;;;2.85;1.83;;;;;;;;;;5063554;28;20501;-81
2021/08/07 05:43:50;;;;;;;20.13;2.03;;;;;;;;;;5101889;28;20028;-78
2021/08/07 05:46:17;;;;;;;1.75;1.60;;;;;;;;;;5087270;28;20031;-79
2021/08/07 05:48:43;;;;;;;1.70;1.60;;;;;;;;;;5103025;28;20282;-79
2021/08/07 05:51:08;;;;;;;2.00;1.80;;;;;;;;;;5086206;28;20092;-80
2021/08/07 05:53:34;;;;;;;14.18;2.05;;;;;;;;;;5084789;28;20051;-80
2021/08/07 05:56:00;;;;;;;2.40;1.80;;;;;;;;;;5079485;28;20472;-78
2021/08/07 05:58:32;;;;;;;1.70;1.60;;;;;;;;;;5080273;28;20036;-79
2021/08/07 06:00:58;;;;;;;3.67;1.77;;;;;;;;;;5094154;28;20051;-79
2021/08/07 06:03:23;;;;;;;5.70;1.70;;;;;;;;;;5096335;28;20036;-79
2021/08/07 06:05:52;;;;;;;1.83;1.55;;;;;;;;;;5095892;28;20028;-79
2021/08/07 06:08:18;;;;;;;2.95;1.60;;;;;;;;;;5079133;28;20038;-79
2021/08/07 06:10:45;;;;;;;3.40;1.40;;;;;;;;;;5079600;28;20481;-79
2021/08/07 06:13:13;;;;;;;2.60;1.65;;;;;;;;;;5080582;28;20032;-80
2021/08/07 06:15:40;;;;;;;3.95;1.90;;;;;;;;;;5079141;28;20054;-79
2021/08/07 06:18:05;;;;;;;3.47;1.77;;;;;;;;;;5079903;28;20028;-79
2021/08/07 06:20:32;;;;;;;5.65;1.80;;;;;;;;;;5079405;28;20059;-78
2021/08/07 06:22:59;;;;;;;2.30;2.00;;;;;;;;;;5096747;28;20028;-79
2021/08/07 06:25:25;;;;;;;1.50;1.40;;;;;;;;;;5097352;28;20039;-80
2021/08/07 06:27:54;;;;;;;4.95;2.80;;;;;;;;;;5095372;28;20036;-79
2021/08/07 06:30:21;;;;;;;3.17;2.50;;;;;;;;;;5096450;28;20020;-81
2021/08/07 06:32:47;;;;;;;5.00;2.28;;;;;;;;;;5096691;28;20123;-79
2021/08/07 06:35:13;;;;;;;5.60;2.20;;;;;;;;;;5079501;28;20067;-79
2021/08/07 06:37:39;;;;;;;7.65;2.72;;;;;;;;;;5078466;28;20060;-78
2021/08/07 06:40:05;;;;;;;5.60;2.40;;;;;;;;;;5079344;28;20024;-79
2021/08/07 06:42:31;;;;;;;3.25;2.33;;;;;;;;;;5078003;28;20048;-78
2021/08/07 06:44:59;;;;;;;4.40;2.10;;;;;;;;;;5059601;28;20064;-79
2021/08/07 06:47:25;;;;;;;5.00;1.90;;;;;;;;;;5079054;28;20401;-79
2021/08/07 06:49:51;;;;;;;2.83;2.10;;;;;;;;;;5063166;28;20116;-79
2021/08/07 06:52:16;;;;;;;6.00;2.17;;;;;;;;;;5061641;28;20085;-79
2021/08/07 06:54:43;;;;;;;4.50;2.53;;;;;;;;;;5061856;28;20032;-79
2021/08/07 06:57:17;;;;;;;5.00;1.83;;;;;;;;;;5078463;28;20028;-79
2021/08/07 06:59:44;;;;;;;4.15;1.83;;;;;;;;;;5079342;28;20505;-79
2021/08/07 07:02:09;;;;;;;3.17;1.90;;;;;;;;;;5061291;28;20036;-79
2021/08/07 07:04:36;;;;;;;1.77;1.67;;;;;;;;;;5063174;28;20142;-79
2021/08/07 07:07:02;;;;;;;4.22;1.70;;;;;;;;;;5063420;28;20031;-79
2021/08/07 07:09:29;;;;;;;4.65;1.73;;;;;;;;;;5066679;28;20043;-79
2021/08/07 07:11:55;;;;;;;3.83;1.63;;;;;;;;;;5082496;28;20482;-79
2021/08/07 07:14:23;;;;;;;1.55;1.30;;;;;;;;;;5080064;28;20048;-80
2021/08/07 07:16:50;;;;;;;1.83;1.55;;;;;;;;;;5063227;28;20123;-80
2021/08/07 07:19:15;;;;;;;2.40;1.25;;;;;;;;;;5063351;28;20052;-79
2021/08/07 07:21:44;;;;;;;3.53;1.65;;;;;;;;;;5063654;28;20128;-79
2021/08/07 07:24:09;;;;;;;5.43;2.38;;;;;;;;;;5063242;28;20078;-80
2021/08/07 07:26:35;;;;;;;3.50;1.70;;;;;;;;;;5079465;28;20033;-79
2021/08/07 07:29:03;;;;;;;5.03;1.50;;;;;;;;;;5079559;28;20039;-79
2021/08/07 07:31:29;;;;;;;2.75;1.60;;;;;;;;;;5062512;28;20490;-80
2021/08/07 07:33:57;;;;;;;4.57;1.60;;;;;;;;;;5078525;28;20047;-78
2021/08/07 07:36:24;;;;;;;2.88;1.70;;;;;;;;;;5060534;28;20046;-78
2021/08/07 07:38:50;;;;;;;4.10;1.83;;;;;;;;;;5076539;28;20410;-78
2021/08/07 07:41:17;;;;;;;1.67;1.27;;;;;;;;;;5079347;28;20462;-79
2021/08/07 07:43:42;;;;;;;2.45;1.30;;;;;;;;;;5061510;28;20086;-78
2021/08/07 07:46:09;;;;;;;1.63;1.17;;;;;;;;;;5061489;28;20040;-78
2021/08/07 07:48:35;;;;;;;2.92;1.38;;;;;;;;;;5061732;28;20032;-78
2021/08/07 07:51:00;;;;;;;3.15;1.38;;;;;;;;;;5078173;28;20394;-78
2021/08/07 07:53:26;;;;;;;4.55;1.50;;;;;;;;;;5078379;28;20037;-78
2021/08/07 07:55:52;;;;;;;4.95;1.10;;;;;;;;;;5080032;28;20482;-78
2021/08/07 07:58:17;;;;;;;1.00;0.80;;;;;;;;;;5060335;28;20040;-79
2021/08/07 08:00:43;;;;;;;3.08;1.48;;;;;;;;;;5080046;28;20028;-79
2021/08/07 08:03:09;;;;;;;7.93;1.30;;;;;;;;;;5078857;28;20487;-79
2021/08/07 08:05:39;;;;;;;4.45;1.50;;;;;;;;;;5062690;28;20052;-78
2021/08/07 08:08:06;;;;;;;3.20;1.23;;;;;;;;;;5079745;28;20029;-78
2021/08/07 08:10:35;;;;;;;8.75;1.25;;;;;;;;;;5077813;28;20032;-78
2021/08/07 08:13:02;;;;;;;4.43;0.80;;;;;;;;;;5061571;28;20056;-78
2021/08/07 08:15:28;;;;;;;2.42;1.20;;;;;;;;;;5078149;28;20085;-78
2021/08/07 08:17:54;;;;;;;2.60;1.00;;;;;;;;;;5078520;28;20111;-79
2021/08/07 08:20:19;;;;;;;1.80;1.00;;;;;;;;;;5061483;28;20089;-79
2021/08/07 08:22:46;;;;;;;1.60;1.10;;;;;;;;;;5061395;28;20504;-79
2021/08/07 08:25:13;;;;;;;3.17;1.10;;;;;;;;;;5061625;28;20116;-79
2021/08/07 08:27:40;;;;;;;3.13;1.10;;;;;;;;;;5077946;28;20029;-78
2021/08/07 08:30:07;;;;;;;3.40;1.20;;;;;;;;;;5061105;28;20032;-79
2021/08/07 08:32:33;;;;;;;2.20;1.20;;;;;;;;;;5061450;28;20048;-79
2021/08/07 08:34:59;;;;;;;5.05;1.38;;;;;;;;;;5077544;28;20032;-79
2021/08/07 08:37:25;;;;;;;3.47;1.30;;;;;;;;;;5077073;28;20051;-78
2021/08/07 08:39:51;;;;;;;3.25;1.35;;;;;;;;;;5060460;28;20033;-79
2021/08/07 08:42:19;;;;;;;2.33;1.20;;;;;;;;;;5060506;28;20029;-79
2021/08/07 08:44:46;;;;;;;5.63;1.10;;;;;;;;;;5107091;28;20039;-79
2021/08/07 08:47:14;;;;;;;5.78;1.30;;;;;;;;;;5100673;28;20118;-79
2021/08/07 08:49:40;;;;;;;1.15;0.77;;;;;;;;;;5117316;28;20031;-78
2021/08/07 08:52:07;;;;;;;3.10;1.08;;;;;;;;;;5117732;28;20103;-78
2021/08/07 08:54:33;;;;;;;2.97;1.10;;;;;;;;;;5116531;28;20115;-78
2021/08/07 08:56:59;;;;;;;2.53;1.08;;;;;;;;;;5118464;28;20063;-78
2021/08/07 08:59:26;;;;;;;3.50;1.23;;;;;;;;;;5116517;28;20035;-78
2021/08/07 09:01:54;;;;;;;2.25;1.02;;;;;;;;;;5116109;28;20088;-78
2021/08/07 09:04:23;;;;;;;2.55;0.98;;;;;;;;;;5098881;28;20036;-78
2021/08/07 09:06:49;;;;;;;2.88;0.93;;;;;;;;;;5099813;28;20035;-78
2021/08/07 09:09:14;;;;;;;3.58;1.02;;;;;;;;;;5116214;28;20492;-78
2021/08/07 09:11:53;;;;;;;2.83;1.00;;;;;;;;;;5099849;28;20059;-78
2021/08/07 09:14:25;;;;;;;2.83;1.20;;;;;;;;;;5099469;28;20034;-78
2021/08/07 09:17:00;;;;;;;3.03;1.00;;;;;;;;;;5099828;28;20059;-79
2021/08/07 09:19:39;;;;;;;4.72;1.00;;;;;;;;;;5116247;28;20485;-78
2021/08/07 09:22:12;;;;;;;5.53;1.02;;;;;;;;;;5116867;28;20029;-78
2021/08/07 09:24:56;;;;;;;1.73;0.75;;;;;;;;;;5099395;28;20028;-78
2021/08/07 09:27:32;;;;;;;1.95;1.10;;;;;;;;;;5116414;28;20031;-78
2021/08/07 09:30:00;;;;;;;2.33;0.82;;;;;;;;;;5099179;28;20594;-78
2021/08/07 09:32:26;;;;;;;1.70;0.80;;;;;;;;;;5115627;28;20480;-78
2021/08/07 09:35:06;;;;;;;2.17;1.00;;;;;;;;;;5099486;28;20035;-78
2021/08/07 09:37:31;;;;;;;3.95;0.93;;;;;;;;;;5099157;28;20477;-78
2021/08/07 09:40:00;;;;;;;3.13;1.13;;;;;;;;;;5098803;28;20024;-78
2021/08/07 09:42:29;;;;;;;2.20;1.10;;;;;;;;;;5086099;28;20104;-78
2021/08/07 09:45:05;;;;;;;5.53;1.10;;;;;;;;;;5095813;28;20032;-78
2021/08/07 09:47:40;;;;;;;10.30;1.40;;;;;;;;;;5079164;28;20038;-78
2021/08/07 09:50:20;;;;;;;3.97;1.23;;;;;;;;;;5077708;28;20035;-78
2021/08/07 09:52:46;;;;;;;1.50;0.80;;;;;;;;;;5095348;28;20535;-78
2021/08/07 09:55:11;;;;;;;4.97;1.20;;;;;;;;;;5095210;28;20036;-78
2021/08/07 09:57:37;;;;;;;3.30;1.10;;;;;;;;;;5095283;28;20655;-78
2021/08/07 10:00:03;;;;;;;5.30;0.88;;;;;;;;;;5095217;28;20374;-78
2021/08/07 10:02:41;;;;;;;2.92;1.00;;;;;;;;;;5095352;28;20096;-78
2021/08/07 10:05:11;;;;;;;6.55;1.50;;;;;;;;;;5095028;28;20493;-78
2021/08/07 10:07:37;;;;;;;5.00;1.92;;;;;;;;;;5094980;28;20527;-78
2021/08/07 10:10:21;;;;;;;5.00;1.17;;;;;;;;;;5095322;28;20032;-78
2021/08/07 10:12:50;;;;;;;2.38;1.00;;;;;;;;;;5094493;28;20035;-78
2021/08/07 10:15:24;;;;;;;3.17;1.08;;;;;;;;;;5114847;28;20039;-78
2021/08/07 10:17:50;;;;;;;3.05;1.13;;;;;;;;;;5115186;28;20039;-78
2021/08/07 10:20:15;;;;;;;3.40;1.08;;;;;;;;;;5097720;28;20106;-78
2021/08/07 10:22:41;;;;;;;5.15;1.30;;;;;;;;;;5119098;28;20032;-78
2021/08/07 10:25:08;;;;;;;6.28;1.33;;;;;;;;;;5102043;28;20118;-78
2021/08/07 10:27:35;;;;;;;7.97;1.35;;;;;;;;;;5102532;28;20059;-78
2021/08/07 10:30:03;;;;;;;3.53;1.33;;;;;;;;;;5119094;28;20096;-79
2021/08/07 10:32:31;;;;;;;4.00;1.45;;;;;;;;;;5102763;28;20044;-78
2021/08/07 10:34:59;;;;;;;4.38;1.17;;;;;;;;;;5120362;28;20066;-80
2021/08/07 10:37:26;;;;;;;7.57;3.40;;;;;;;;;;5119216;28;20527;-78
2021/08/07 10:39:52;;;;;;;3.63;1.20;;;;;;;;;;5102188;28;20020;-78
2021/08/07 10:42:19;;;;;;;7.95;2.25;;;;;;;;;;5085342;28;20028;-77
2021/08/07 10:44:47;;;;;;;4.55;1.17;;;;;;;;;;5076888;28;20119;-77
2021/08/07 10:47:14;;;;;;;6.88;1.73;;;;;;;;;;5075935;28;20114;-78
2021/08/07 10:49:45;;;;;;;3.92;1.52;;;;;;;;;;5079610;28;20497;-80
2021/08/07 10:52:21;;;;;;;3.45;1.73;;;;;;;;;;5083363;28;20034;-80
2021/08/07 10:54:51;;;;;;;5.82;1.20;;;;;;;;;;5081665;28;20033;-77
2021/08/07 10:57:38;;;;;;;4.50;1.05;;;;;;;;;;5077825;28;20433;-78
2021/08/07 11:00:15;;;;;;;3.95;1.30;;;;;;;;;;5077664;28;20033;-80
2021/08/07 11:02:41;;;;;;;4.50;1.50;;;;;;;;;;5081228;28;20043;-79
2021/08/07 11:05:07;;;;;;;4.22;1.23;;;;;;;;;;5079723;28;20064;-78
2021/08/07 11:07:34;;;;;;;3.20;1.30;;;;;;;;;;5080323;28;20036;-78
2021/08/07 11:10:04;;;;;;;3.17;1.08;;;;;;;;;;5080643;28;20127;-77
2021/08/07 11:12:31;;;;;;;1.95;1.25;;;;;;;;;;5092153;28;20065;-79
2021/08/07 11:14:59;;;;;;;3.95;1.20;;;;;;;;;;5106946;28;20023;-80
2021/08/07 11:17:28;;;;;;;5.40;1.48;;;;;;;;;;5127118;28;20038;-80
2021/08/07 11:20:06;;;;;;;6.85;1.67;;;;;;;;;;5109949;28;20552;-80
2021/08/07 11:22:32;;;;;;;4.95;1.27;;;;;;;;;;5125629;28;20042;-79
2021/08/07 11:25:03;;;;;;;10.23;3.22;;;;;;;;;;5106770;28;20067;-78
2021/08/07 11:27:55;;;;;;;6.68;1.35;;;;;;;;;;5106652;28;20401;-81
2021/08/07 11:30:39;;;;;;;3.58;1.20;;;;;;;;;;5125451;28;20100;-81
2021/08/07 11:33:11;;;;;;;5.03;1.40;;;;;;;;;;5109208;28;20048;-80
2021/08/07 11:35:37;;;;;;;4.80;1.30;;;;;;;;;;5107911;28;20070;-78
2021/08/07 11:38:09;;;;;;;7.20;1.63;;;;;;;;;;5121824;28;20036;-79
2021/08/07 11:40:47;;;;;;;2.42;1.25;;;;;;;;;;5123454;28;20023;-80
2021/08/07 11:43:13;;;;;;;6.05;1.83;;;;;;;;;;5104916;28;20036;-78
2021/08/07 11:45:39;;;;;;;5.75;1.20;;;;;;;;;;5101701;28;20047;-79
2021/08/07 11:48:05;;;;;;;4.32;1.20;;;;;;;;;;5089062;28;20028;-80
2021/08/07 11:50:31;;;;;;;2.55;1.10;;;;;;;;;;5105031;28;20540;-80
2021/08/07 11:52:56;;;;;;;4.80;1.42;;;;;;;;;;5107104;28;20031;-79
2021/08/07 11:55:22;;;;;;;2.90;1.17;;;;;;;;;;5087346;28;20032;-79
2021/08/07 11:58:03;;;;;;;4.80;1.27;;;;;;;;;;5104491;28;20036;-78
2021/08/07 12:00:29;;;;;;;2.72;1.20;;;;;;;;;;5085286;28;20035;-79
2021/08/07 12:02:59;;;;;;;6.60;1.23;;;;;;;;;;5102382;28;20036;-80
2021/08/07 12:05:25;;;;;;;4.80;1.48;;;;;;;;;;5089270;28;20413;-80
2021/08/07 12:08:01;;;;;;;4.07;1.20;;;;;;;;;;5089596;28;20521;-81
2021/08/07 12:10:27;;;;;;;1.67;1.05;;;;;;;;;;5089151;28;20024;-85
2021/08/07 12:12:53;;;;;;;12.93;1.85;;;;;;;;;;5087628;28;20565;-81
2021/08/07 12:15:18;;;;;;;3.72;1.27;;;;;;;;;;5083562;28;20041;-80
2021/08/07 12:17:45;;;;;;;3.58;1.10;;;;;;;;;;5084487;28;20047;-80
2021/08/07 12:20:12;;;;;;;3.83;1.33;;;;;;;;;;5082581;28;20039;-80
2021/08/07 12:22:57;;;;;;;2.22;0.88;;;;;;;;;;5082672;28;20125;-81
2021/08/07 12:25:23;;;;;;;;;;;;;;;;;;5082748;28;20028;-81
2021/08/07 12:28:15;;;;;;;5.20;1.40;;;;;;;;;;5067799;28;19947;-81
2021/08/07 12:31:01;;;;;;;6.47;1.55;;;;;;;;;;5078961;28;20440;-80
2021/08/07 12:33:40;;;;;;;9.38;1.35;;;;;;;;;;5083195;28;20052;-80
2021/08/07 12:36:32;;;;;;;4.95;1.35;;;;;;;;;;5064295;28;20032;-81
2021/08/07 12:38:58;;;;;;;3.58;1.30;;;;;;;;;;5063691;28;20048;-81
2021/08/07 12:41:23;;;;;;;3.38;1.05;;;;;;;;;;5071516;28;20032;-81
2021/08/07 12:43:49;;;;;;;6.60;1.35;;;;;;;;;;5121713;28;20027;-81
2021/08/07 12:46:16;;;;;;;5.15;1.65;;;;;;;;;;5121812;28;20035;-81
2021/08/07 12:48:56;;;;;;;5.10;1.30;;;;;;;;;;5120181;28;20032;-80
2021/08/07 12:51:33;;;;;;;5.97;1.33;;;;;;;;;;5119611;28;20473;-80
2021/08/07 12:54:14;;;;;;;5.50;1.10;;;;;;;;;;5120186;28;20042;-80
2021/08/07 12:56:47;;;;;;;3.42;1.17;;;;;;;;;;5103600;28;20032;-81
2021/08/07 12:59:12;;;;;;;10.68;1.63;;;;;;;;;;5120752;28;20040;-82
2021/08/07 13:01:40;;;;;;;6.95;1.17;;;;;;;;;;5102050;28;20059;-81
2021/08/07 13:04:10;;;;;;;6.32;1.33;;;;;;;;;;5101039;28;20122;-81
2021/08/07 13:06:59;;;;;;;4.35;1.50;;;;;;;;;;5118387;28;20034;-81
2021/08/07 13:09:26;;;;;;;3.95;1.30;;;;;;;;;;5101439;28;20059;-80
2021/08/07 13:12:13;;;;;;;4.85;1.25;;;;;;;;;;5119095;28;20031;-81
2021/08/07 13:14:42;;;;;;;5.63;0.90;;;;;;;;;;5119360;28;20043;-78
2021/08/07 13:17:08;;;;;;;2.63;1.00;;;;;;;;;;5101081;28;20058;-80
2021/08/07 13:19:42;;;;;;;2.25;1.20;;;;;;;;;;5101095;28;20047;-79
2021/08/07 13:22:13;;;;;;;1.95;0.95;;;;;;;;;;5117521;28;20039;-80
2021/08/07 13:24:48;;;;;;;5.82;1.60;;;;;;;;;;5101048;28;20042;-80
2021/08/07 13:27:14;;;;;;;3.70;1.55;;;;;;;;;;5100252;28;20438;-77
2021/08/07 13:29:41;;;;;;;6.53;2.08;;;;;;;;;;5115394;28;20036;-80
2021/08/07 13:32:21;;;;;;;3.13;1.27;;;;;;;;;;5100795;28;20177;-80
2021/08/07 13:34:47;;;;;;;3.83;1.38;;;;;;;;;;5117632;28;20040;-80
2021/08/07 13:37:13;;;;;;;5.18;1.00;;;;;;;;;;5100417;28;20046;-80
2021/08/07 13:39:40;;;;;;;6.60;1.98;;;;;;;;;;5118339;28;20486;-80
2021/08/07 13:42:09;;;;;;;3.20;1.00;;;;;;;;;;5100051;28;20096;-80
2021/08/07 13:44:35;;;;;;;2.63;1.00;;;;;;;;;;5100824;28;20038;-81
2021/08/07 13:47:03;;;;;;;10.32;2.05;;;;;;;;;;5117761;28;20123;-81
2021/08/07 13:49:29;;;;;;;5.95;1.30;;;;;;;;;;5101542;28;20507;-81
2021/08/07 13:51:54;;;;;;;2.65;1.10;;;;;;;;;;5117898;28;20035;-81
2021/08/07 13:54:19;;;;;;;2.42;1.15;;;;;;;;;;5100722;28;20181;-80
2021/08/07 13:56:45;;;;;;;2.33;0.98;;;;;;;;;;5100704;28;20031;-81
2021/08/07 13:59:10;;;;;;;4.53;1.00;;;;;;;;;;5101412;28;20032;-80
2021/08/07 14:01:36;;;;;;;7.20;2.03;;;;;;;;;;5117747;28;20031;-81
2021/08/07 14:04:01;;;;;;;3.83;1.42;;;;;;;;;;5119509;28;20035;-80
2021/08/07 14:06:27;;;;;;;2.35;0.90;;;;;;;;;;5103154;28;20085;-81
2021/08/07 14:08:52;;;;;;;77.10;5.10;;;;;;;;;;5101750;28;20082;-81
2021/08/07 14:11:18;;;;;;;3.00;1.20;;;;;;;;;;5098268;28;20130;-82
2021/08/07 14:13:44;;;;;;;2.65;1.20;;;;;;;;;;5081331;28;20120;-81
2021/08/07 14:16:10;;;;;;;4.13;0.90;;;;;;;;;;5098291;28;20039;-81
2021/08/07 14:18:36;;;;;;;4.70;1.10;;;;;;;;;;5081621;28;20398;-81
2021/08/07 14:21:01;;;;;;;3.40;1.15;;;;;;;;;;5097596;28;20096;-80
2021/08/07 14:23:27;;;;;;;6.28;2.88;;;;;;;;;;5098826;28;20054;-81
2021/08/07 14:25:53;;;;;;;6.07;1.50;;;;;;;;;;5095155;28;20039;-81
2021/08/07 14:28:18;;;;;;;6.28;1.48;;;;;;;;;;5096807;28;20075;-81
2021/08/07 14:30:44;;;;;;;6.43;1.40;;;;;;;;;;5097589;28;20035;-80
2021/08/07 14:33:09;;;;;;;3.97;1.10;;;;;;;;;;5097320;28;20044;-81
2021/08/07 14:35:35;;;;;;;3.97;2.13;;;;;;;;;;5097298;28;20517;-81
2021/08/07 14:38:00;;;;;;;5.80;2.95;;;;;;;;;;5097855;28;20118;-80
2021/08/07 14:40:25;;;;;;;4.40;1.50;;;;;;;;;;5098009;28;20044;-81
2021/08/07 14:42:51;;;;;;;2.53;1.27;;;;;;;;;;5063988;28;20024;-81
2021/08/07 14:45:16;;;;;;;4.25;1.30;;;;;;;;;;5060026;28;20044;-81
2021/08/07 14:47:42;;;;;;;4.57;1.15;;;;;;;;;;5060055;28;20127;-81
2021/08/07 14:50:08;;;;;;;4.50;1.20;;;;;;;;;;5059900;28;20024;-81